Time;durP1;ratioP1;P1;durP2;ratioP2;P2;SDS_P1;SDS_P2;PMS_P1;PMS_P2;Temp;Humidity;BMP_temperature;BMP_pressure;BME280_temperature;BME280_humidity;BME280_pressure;Samples;Min_cycle;Max_cycle;Signal;HPM_P1;HPM_P2
2023/01/01 00:01:45;;;;;;;;;5.67;3.67;;;;;16.04;100.00;100802.97;4969330;28;45491;-79
2023/01/01 00:04:14;;;;;;;;;3.33;2.33;;;;;16.25;100.00;100829.13;4969309;28;45341;-82
2023/01/01 00:06:41;;;;;;;;;3.67;3.00;;;;;16.01;100.00;100797.94;4968335;28;45368;-79
2023/01/01 00:11:52;;;;;;;;;6.67;6.00;;;;;15.89;100.00;100775.81;4948349;28;45461;-80
2023/01/01 00:14:21;;;;;;;;;5.33;5.33;;;;;15.94;100.00;100781.44;4958152;28;47008;-80
2023/01/01 00:16:47;;;;;;;;;4.67;4.00;;;;;16.03;100.00;100807.66;4967176;28;45470;-81
2023/01/01 00:19:13;;;;;;;;;6.00;4.00;;;;;16.08;100.00;100819.91;4966179;28;45753;-80
2023/01/01 00:21:39;;;;;;;;;4.33;2.00;;;;;16.19;100.00;100838.41;4957243;28;46469;-82
2023/01/01 00:24:05;;;;;;;;;6.67;3.00;;;;;15.99;100.00;100814.75;4958620;28;46915;-80
2023/01/01 00:26:31;;;;;;;;;3.33;3.33;;;;;16.08;100.00;100819.91;4967127;28;45343;-81
2023/01/01 00:29:00;;;;;;;;;2.00;2.00;;;;;15.84;100.00;100775.72;4968099;28;45405;-80
2023/01/01 00:31:27;;;;;;;;;3.33;3.33;;;;;16.13;100.00;100833.88;4958130;28;45405;-81
2023/01/01 00:33:54;;;;;;;;;7.00;4.00;;;;;16.13;100.00;100833.88;4956801;28;47124;-81
2023/01/01 00:36:25;;;;;;;;;4.00;3.00;;;;;16.00;100.00;100813.69;4967189;28;45577;-79
2023/01/01 00:38:52;;;;;;;;;4.00;3.67;;;;;16.01;100.00;100820.88;4951081;28;45477;-80
2023/01/01 00:41:18;;;;;;;;;5.67;5.00;;;;;15.92;100.00;100797.44;4950178;28;45646;-80
2023/01/01 00:43:44;;;;;;;;;6.33;4.33;;;;;16.11;100.00;100833.25;4961347;28;47401;-79
2023/01/01 00:46:11;;;;;;;;;6.00;5.00;;;;;16.04;100.00;100827.88;4969066;28;45425;-81
2023/01/01 00:48:38;;;;;;;;;2.00;2.00;;;;;15.75;100.00;100780.75;4967452;28;45424;-80
2023/01/01 00:51:04;;;;;;;;;4.00;4.00;;;;;15.96;100.00;100823.56;4967029;28;45624;-78
2023/01/01 00:53:31;;;;;;;;;6.67;6.00;;;;;15.99;100.00;100823.06;4966504;28;45603;-79
2023/01/01 00:55:57;;;;;;;;;5.33;4.33;;;;;16.01;100.00;100829.19;4966328;28;45474;-80
2023/01/01 00:58:24;;;;;;;;;4.33;4.33;;;;;16.01;100.00;100848.53;4966174;28;45735;-80
2023/01/01 01:00:51;;;;;;;;;4.67;3.67;;;;;15.88;100.00;100804.56;4958996;28;46018;-80
2023/01/01 01:03:38;;;;;;;;;7.33;5.00;;;;;15.95;100.00;100815.50;4948323;28;47119;-78
2023/01/01 01:06:04;;;;;;;;;4.00;4.00;;;;;15.91;100.00;100834.47;4969875;28;45524;-79
2023/01/01 01:08:31;;;;;;;;;2.00;2.00;;;;;15.86;100.00;100818.63;4949475;28;45370;-79
2023/01/01 01:11:18;;;;;;;;;4.33;3.33;;;;;16.00;100.00;100844.13;4966575;28;45364;-79
2023/01/01 01:13:48;;;;;;;;;3.67;2.67;;;;;15.99;100.00;100839.66;4949671;28;46854;-79
2023/01/01 01:16:33;;;;;;;;;3.67;3.00;;;;;15.97;100.00;100844.59;4967341;28;45424;-81
2023/01/01 01:19:04;;;;;;;;;6.00;5.33;;;;;15.88;100.00;100838.59;4968438;28;45420;-78
2023/01/01 01:21:31;;;;;;;;;6.67;5.33;;;;;15.99;100.00;100847.97;4953054;28;46058;-79
2023/01/01 01:23:58;;;;;;;;;4.00;4.00;;;;;15.93;100.00;100845.31;4954054;28;45733;-79
2023/01/01 01:26:30;;;;;;;;;8.00;6.67;;;;;15.99;100.00;100847.97;4966975;28;45651;-78
2023/01/01 01:28:59;;;;;;;;;6.33;4.33;;;;;16.00;100.00;100857.94;4967603;28;44826;-80
2023/01/01 01:31:29;;;;;;;;;4.00;2.33;;;;;15.93;100.00;100829.56;4955967;28;46056;-78
2023/01/01 01:33:55;;;;;;;;;3.33;3.33;;;;;16.00;100.00;100870.91;4965616;28;46398;-79
2023/01/01 01:36:21;;;;;;;;;5.00;4.00;;;;;15.98;100.00;100857.34;4971081;28;45282;-81
2023/01/01 01:38:50;;;;;;;;;7.33;5.33;;;;;15.99;100.00;100855.44;4971183;28;45946;-80
2023/01/01 01:41:20;;;;;;;;;9.00;4.00;;;;;15.93;100.00;100854.47;4970854;28;45958;-82
2023/01/01 01:44:00;;;;;;;;;7.33;3.00;;;;;15.94;100.00;100864.44;4970540;28;46371;-80
2023/01/01 01:46:35;;;;;;;;;4.33;4.00;;;;;16.01;100.00;100872.63;4953926;28;45522;-79
2023/01/01 01:49:11;;;;;;;;;4.67;4.67;;;;;15.97;100.00;100888.88;4970101;28;46278;-79
2023/01/01 01:51:39;;;;;;;;;5.00;5.00;;;;;15.98;100.00;100886.94;4962702;28;45794;-79
2023/01/01 01:54:11;;;;;;;;;6.33;4.00;;;;;15.99;100.00;100889.44;4970063;28;45564;-79
2023/01/01 01:56:55;;;;;;;;;4.33;4.00;;;;;15.94;100.00;100881.03;4964467;28;45433;-79
2023/01/01 01:59:23;;;;;;;;;8.00;5.33;;;;;16.00;100.00;100898.59;4970661;28;45809;-78
2023/01/01 02:01:49;;;;;;;;;4.33;4.33;;;;;15.97;100.00;100894.41;4952631;28;45523;-79
2023/01/01 02:04:16;;;;;;;;;4.00;4.00;;;;;15.88;100.00;100885.63;4970679;28;46659;-80
2023/01/01 02:06:43;;;;;;;;;7.67;5.67;;;;;15.98;100.00;100901.59;4970546;28;45401;-77
2023/01/01 02:09:09;;;;;;;;;4.00;4.00;;;;;15.91;100.00;100903.63;4969276;28;45655;-79
2023/01/01 02:11:36;;;;;;;;;6.33;3.33;;;;;15.87;100.00;100892.22;4970284;28;45066;-80
2023/01/01 02:14:04;;;;;;;;;7.00;4.33;;;;;15.93;100.00;100893.19;4968855;28;46938;-78
2023/01/01 02:16:47;;;;;;;;;8.67;6.33;;;;;15.94;100.00;100896.78;4961247;28;44804;-78
2023/01/01 02:19:25;;;;;;;;;7.00;4.33;;;;;15.94;100.00;100919.75;4969010;28;45588;-79
2023/01/01 02:22:05;;;;;;;;;6.00;3.67;;;;;15.85;100.00;100904.59;4968052;28;45364;-80
2023/01/01 02:24:46;;;;;;;;;7.67;4.00;;;;;15.87;100.00;100903.28;4957566;28;46177;-80
2023/01/01 02:27:33;;;;;;;;;4.00;2.33;;;;;15.92;100.00;100910.84;4968916;28;45420;-79
2023/01/01 02:30:05;;;;;;;;;4.00;3.00;;;;;15.92;100.00;100910.84;4963686;28;45323;-79
2023/01/01 02:32:44;;;;;;;;;4.33;4.33;;;;;15.91;100.00;100903.63;4969930;28;45738;-80
2023/01/01 02:35:35;;;;;;;;;8.67;4.33;;;;;15.88;100.00;100893.06;4971478;28;46352;-80
2023/01/01 02:38:17;;;;;;;;;4.00;4.00;;;;;15.85;100.00;100910.13;4943794;28;45399;-79
2023/01/01 02:40:58;;;;;;;;;7.33;4.00;;;;;15.71;100.00;100902.03;4964227;28;45501;-78
2023/01/01 02:43:24;;;;;;;;;4.00;3.00;;;;;15.85;100.00;100921.19;4963110;28;45386;-78
2023/01/01 02:45:50;;;;;;;;;7.00;4.33;;;;;15.85;100.00;100915.66;4967962;28;46133;-78
2023/01/01 02:48:36;;;;;;;;;6.33;5.00;;;;;15.81;100.00;100925.53;4968838;28;45528;-78
2023/01/01 02:51:13;;;;;;;;;5.00;5.00;;;;;15.74;100.00;100928.38;4969313;28;45476;-78
2023/01/01 02:54:03;;;;;;;;;8.00;4.00;;;;;15.77;100.00;100930.66;4973475;28;45813;-80
2023/01/01 02:56:37;;;;;;;;;5.00;4.00;;;;;15.77;100.00;100935.34;4956981;28;45890;-77
2023/01/01 03:02:14;;;;;;;;;6.33;4.00;;;;;15.78;100.00;100954.50;4977361;28;44672;-80
2023/01/01 03:05:01;;;;;;;;;3.33;2.67;;;;;15.71;100.00;100924.16;4971152;28;45793;-79
2023/01/01 03:07:48;;;;;;;;;5.33;4.00;;;;;15.75;100.00;100932.84;4967865;28;47232;-78
2023/01/01 03:10:30;;;;;;;;;3.67;3.67;;;;;15.66;100.00;100907.44;4952817;28;44767;-77
2023/01/01 03:13:09;;;;;;;;;4.67;2.33;;;;;15.70;100.00;100941.84;4952558;28;45415;-79
2023/01/01 03:15:48;;;;;;;;;7.67;5.00;;;;;15.68;100.00;100935.69;4980635;28;45486;-78
2023/01/01 03:18:25;;;;;;;;;3.67;2.67;;;;;15.65;100.00;100947.22;4962200;28;47272;-79
2023/01/01 03:20:56;;;;;;;;;6.00;3.67;;;;;15.50;100.00;100917.28;4952484;28;45394;-78
2023/01/01 03:24:00;;;;;;;;;5.00;4.00;;;;;15.63;100.00;100935.56;4951465;28;45423;-80
2023/01/01 03:26:30;;;;;;;;;7.00;4.00;;;;;15.62;100.00;100941.34;4932368;28;45700;-79
2023/01/01 03:29:03;;;;;;;;;5.00;5.00;;;;;15.61;100.00;100940.47;4951804;28;45353;-78
2023/01/01 03:31:31;;;;;;;;;7.33;4.67;;;;;15.55;100.00;100938.69;4968803;28;45806;-79
2023/01/01 03:34:05;;;;;;;;;6.00;4.67;;;;;15.59;100.00;100950.94;4969827;28;45385;-78
2023/01/01 03:36:36;;;;;;;;;7.67;5.67;;;;;15.59;100.00;100952.88;4966801;28;45414;-79
2023/01/01 03:39:13;;;;;;;;;10.33;6.00;;;;;15.59;100.00;100963.94;4968114;28;47176;-77
2023/01/01 03:41:46;;;;;;;;;5.00;4.00;;;;;15.49;100.00;100959.84;4977986;28;45852;-80
2023/01/01 03:44:24;;;;;;;;;4.67;3.67;;;;;15.40;100.00;100939.13;4951977;28;45879;-78
2023/01/01 03:46:50;;;;;;;;;3.33;3.33;;;;;15.51;100.00;100959.59;4969005;28;45861;-78
2023/01/01 03:49:18;;;;;;;;;8.00;6.00;;;;;15.56;100.00;100962.47;4952625;28;45680;-80
2023/01/01 03:51:50;;;;;;;;;5.00;5.00;;;;;15.53;100.00;100962.97;4966040;28;45596;-79
2023/01/01 03:54:31;;;;;;;;;9.00;6.33;;;;;15.62;100.00;100983.66;4948790;28;45301;-80
2023/01/01 03:57:09;;;;;;;;;4.67;4.67;;;;;15.41;100.00;100942.75;4962301;28;46012;-79
2023/01/01 04:00:07;;;;;;;;;3.00;3.00;;;;;15.59;100.00;100984.13;4964073;28;46730;-79
2023/01/01 04:02:39;;;;;;;;;5.67;4.33;;;;;15.47;100.00;100961.16;4967603;28;44897;-81
2023/01/01 04:05:09;;;;;;;;;7.00;4.33;;;;;15.47;100.00;100980.50;4964824;28;45454;-79
2023/01/01 04:07:42;;;;;;;;;3.00;2.00;;;;;15.44;100.00;100975.44;4967530;28;45738;-78
2023/01/01 04:10:18;;;;;;;;;6.00;4.33;;;;;15.56;100.00;101006.72;4949492;28;46966;-77
2023/01/01 04:12:49;;;;;;;;;5.00;5.00;;;;;15.46;100.00;100993.44;4965254;28;45639;-79
2023/01/01 04:15:17;;;;;;;;;3.00;3.00;;;;;15.39;100.00;100972.53;4959558;28;45587;-79
2023/01/01 04:17:44;;;;;;;;;7.67;6.00;;;;;15.55;100.00;100993.97;4963489;28;45504;-78
2023/01/01 04:20:11;;;;;;;;;7.00;7.00;;;;;15.54;100.00;100990.38;4967091;28;46478;-79
2023/01/01 04:22:37;;;;;;;;;7.33;4.00;;;;;15.53;100.00;100980.38;4952267;28;44923;-77
2023/01/01 04:25:03;;;;;;;;;6.00;4.00;;;;;15.48;100.00;100988.53;4964133;28;44800;-78
2023/01/01 04:27:29;;;;;;;;;5.67;3.33;;;;;15.54;100.00;101006.13;4952857;28;46140;-77
2023/01/01 04:29:55;;;;;;;;;5.33;4.67;;;;;15.39;100.00;100986.34;4961552;28;45160;-79
2023/01/01 04:32:21;;;;;;;;;4.00;4.00;;;;;15.45;100.00;101004.75;4964770;28;45430;-80
2023/01/01 04:34:47;;;;;;;;;6.00;4.33;;;;;15.31;100.00;100982.00;4947534;28;45617;-78
2023/01/01 04:37:13;;;;;;;;;3.67;3.33;;;;;15.44;100.00;100995.63;4964174;28;46147;-77
2023/01/01 04:39:42;;;;;;;;;5.00;3.00;;;;;15.36;100.00;100993.19;4963615;28;46178;-79
2023/01/01 04:42:08;;;;;;;;;6.33;4.00;;;;;15.42;100.00;101005.22;4963622;28;45802;-79
2023/01/01 04:44:35;;;;;;;;;5.00;4.00;;;;;15.41;100.00;101009.06;4960911;28;45451;-77
2023/01/01 04:47:01;;;;;;;;;5.67;5.00;;;;;15.42;100.00;101006.06;4966347;28;45340;-78
2023/01/01 04:49:27;;;;;;;;;7.00;6.00;;;;;15.38;100.00;101004.84;4964851;28;45166;-78
2023/01/01 04:51:52;;;;;;;;;4.00;3.00;;;;;15.36;100.00;100996.78;4957021;28;44744;-79
2023/01/01 04:54:18;;;;;;;;;6.33;4.67;;;;;15.30;100.00;100996.88;4967025;28;45322;-79
2023/01/01 04:56:48;;;;;;;;;2.67;2.67;;;;;15.31;100.00;101010.50;4967823;28;45752;-78
2023/01/01 04:59:14;;;;;;;;;5.00;5.00;;;;;15.30;100.00;101019.84;4950430;28;45508;-79
2023/01/01 05:01:42;;;;;;;;;5.00;3.67;;;;;15.26;100.00;101004.81;4967651;28;45445;-79
2023/01/01 05:04:17;;;;;;;;;5.00;4.00;;;;;15.31;100.00;101012.38;4968589;28;45492;-80
2023/01/01 05:06:43;;;;;;;;;3.00;3.00;;;;;15.30;100.00;101011.56;4967919;28;45539;-78
2023/01/01 05:09:12;;;;;;;;;4.00;4.00;;;;;15.16;100.00;101004.50;4966872;28;46697;-76
2023/01/01 05:11:37;;;;;;;;;3.00;3.00;;;;;15.24;100.00;101020.78;4966682;28;44769;-77
2023/01/01 05:14:04;;;;;;;;;4.33;3.00;;;;;15.26;100.00;101023.31;4966238;28;45538;-77
2023/01/01 05:20:19;;;;;;;;;3.00;3.00;;;;;14.85;100.00;100980.69;4897798;28;46370;-80
2023/01/01 05:22:55;;;;;;;;;5.67;4.00;;;;;15.22;100.00;101052.47;4962875;28;45443;-81
2023/01/01 05:25:27;;;;;;;;;5.33;3.67;;;;;15.17;100.00;101047.66;4964357;28;45594;-82
2023/01/01 05:28:22;;;;;;;;;4.00;3.00;;;;;14.98;100.00;101021.97;4966896;28;45298;-80
2023/01/01 05:37:12;;;;;;;;;5.33;5.33;;;;;15.16;100.00;101062.53;4948127;28;44854;-80
2023/01/01 05:39:40;;;;;;;;;8.33;3.00;;;;;14.98;100.00;101039.41;4963759;28;45661;-78
2023/01/01 05:42:06;;;;;;;;;0.00;0.00;;;;;14.97;100.00;101021.13;4945738;28;46535;-81
2023/01/01 05:44:33;;;;;;;;;4.00;4.00;;;;;15.20;100.00;101069.28;4964816;28;45382;-77
2023/01/01 05:47:06;;;;;;;;;5.00;3.33;;;;;15.15;100.00;101066.38;4966927;28;45908;-78
2023/01/01 05:49:35;;;;;;;;;4.00;3.00;;;;;15.02;100.00;101044.44;4959900;28;45418;-78
2023/01/01 05:52:04;;;;;;;;;3.67;3.67;;;;;15.02;100.00;101034.25;4949665;28;46965;-79
2023/01/01 05:54:34;;;;;;;;;4.00;4.00;;;;;15.11;100.00;101062.41;4949588;28;45166;-79
2023/01/01 05:56:59;;;;;;;;;3.67;2.00;;;;;15.17;100.00;101076.13;4947291;28;45353;-80
2023/01/01 05:59:27;;;;;;;;;3.00;3.00;;;;;15.18;100.00;101079.75;4949075;28;45703;-78
2023/01/01 06:02:24;;;;;;;;;6.33;5.00;;;;;15.13;100.00;101066.59;4969008;28;46157;-78
2023/01/01 06:04:51;;;;;;;;;3.33;3.33;;;;;15.00;100.00;101045.53;4970591;28;45433;-78
2023/01/01 06:07:17;;;;;;;;;7.00;3.00;;;;;14.95;100.00;101036.22;4951425;28;45809;-78
2023/01/01 06:09:46;;;;;;;;;3.67;2.00;;;;;15.02;100.00;101042.53;4968448;28;45049;-80
2023/01/01 06:12:14;;;;;;;;;4.00;3.00;;;;;15.01;100.00;101046.34;4968368;28;46361;-80
2023/01/01 06:14:46;;;;;;;;;5.00;3.67;;;;;15.14;100.00;101067.47;4958104;28;45438;-80
2023/01/01 06:17:15;;;;;;;;;4.67;4.67;;;;;14.98;100.00;101033.88;4968115;28;44826;-80
2023/01/01 06:19:53;;;;;;;;;3.67;3.00;;;;;14.95;100.00;101022.41;4966075;28;46854;-79
2023/01/01 06:22:19;;;;;;;;;4.67;3.00;;;;;15.15;100.00;101052.56;4954232;28;46096;-79
2023/01/01 06:25:06;;;;;;;;;3.00;3.00;;;;;15.11;100.00;101054.94;4970870;28;45377;-80
2023/01/01 06:27:38;;;;;;;;;4.00;4.00;;;;;14.97;100.00;101034.94;4968223;28;44837;-79
2023/01/01 06:30:07;;;;;;;;;6.33;3.33;;;;;15.08;100.00;101043.53;4970724;28;45461;-80
2023/01/01 06:32:35;;;;;;;;;2.67;2.33;;;;;14.97;100.00;101037.69;4970262;28;47252;-79
2023/01/01 06:35:01;;;;;;;;;3.67;3.00;;;;;15.04;100.00;101061.63;4963117;28;45873;-80
2023/01/01 06:37:27;;;;;;;;;7.00;4.33;;;;;14.96;100.00;101077.44;4965201;28;44820;-79
2023/01/01 06:39:54;;;;;;;;;6.33;3.00;;;;;15.02;100.00;101083.13;4969812;28;45577;-80
2023/01/01 06:42:24;;;;;;;;;3.00;3.00;;;;;14.94;100.00;101070.44;4973730;28;47117;-80
2023/01/01 06:44:49;;;;;;;;;5.67;4.67;;;;;15.03;100.00;101082.88;4967325;28;45547;-77
2023/01/01 06:47:15;;;;;;;;;3.00;3.00;;;;;15.06;100.00;101079.66;4950450;28;45596;-78
2023/01/01 06:49:41;;;;;;;;;3.33;3.00;;;;;14.97;100.00;101081.88;4965852;28;45602;-79
2023/01/01 06:52:09;;;;;;;;;6.00;4.33;;;;;15.04;100.00;101097.53;4966926;28;45681;-78
2023/01/01 06:54:37;;;;;;;;;4.67;2.67;;;;;15.04;100.00;101114.09;4967767;28;45666;-81
2023/01/01 06:57:06;;;;;;;;;3.33;2.33;;;;;14.93;100.00;101093.63;4950085;28;45464;-80
2023/01/01 06:59:34;;;;;;;;;3.67;3.67;;;;;14.92;100.00;101089.16;4960365;28;45423;-80
2023/01/01 07:01:59;;;;;;;;;4.00;3.33;;;;;14.91;100.00;101090.22;4964516;28;47711;-80
2023/01/01 07:04:25;;;;;;;;;5.67;4.00;;;;;15.04;100.00;101120.47;4965269;28;44806;-81
2023/01/01 07:06:50;;;;;;;;;5.33;2.33;;;;;15.04;100.00;101114.09;4968575;28;44828;-81
2023/01/01 07:09:16;;;;;;;;;5.67;2.67;;;;;14.92;100.00;101105.75;4965614;28;45532;-81
2023/01/01 07:12:03;;;;;;;;;5.33;3.33;;;;;15.02;100.00;101107.97;4953063;28;47464;-83
2023/01/01 07:14:36;;;;;;;;;9.33;3.00;;;;;14.89;100.00;101101.50;4946061;28;45831;-81
2023/01/01 07:17:01;;;;;;;;;3.00;3.00;;;;;14.91;100.00;101110.44;4964146;28;45523;-80
2023/01/01 07:19:27;;;;;;;;;6.67;4.00;;;;;14.98;100.00;101132.44;4958336;28;44822;-79
2023/01/01 07:21:54;;;;;;;;;4.00;3.00;;;;;14.92;100.00;101123.13;4967033;28;45504;-81
2023/01/01 07:24:21;;;;;;;;;4.67;3.67;;;;;14.90;100.00;101130.00;4963926;28;44840;-80
2023/01/01 07:26:47;;;;;;;;;3.00;3.00;;;;;14.91;100.00;101124.22;4964445;28;45689;-80
2023/01/01 07:29:15;;;;;;;;;7.00;4.00;;;;;14.94;100.00;101132.06;4964038;28;45426;-82
2023/01/01 07:31:43;;;;;;;;;5.00;3.67;;;;;15.05;100.00;101155.31;4969109;28;45592;-84
2023/01/01 07:34:13;;;;;;;;;3.00;3.00;;;;;14.97;100.00;101147.31;4959491;28;45869;-84
2023/01/01 07:36:40;;;;;;;;;0.00;0.00;;;;;15.04;100.00;101163.81;4962239;28;45357;-82
2023/01/01 07:39:06;;;;;;;;;5.67;3.33;;;;;14.96;100.00;101143.72;4967687;28;44791;-81
2023/01/01 07:41:31;;;;;;;;;7.67;3.00;;;;;14.90;100.00;101136.34;4965456;28;46385;-81
2023/01/01 07:43:57;;;;;;;;;6.00;3.00;;;;;14.87;100.00;101147.84;4947272;28;45881;-81
2023/01/01 07:46:23;;;;;;;;;3.67;3.00;;;;;14.97;100.00;101181.31;4963614;28;45825;-81
2023/01/01 07:48:49;;;;;;;;;5.33;4.33;;;;;14.90;100.00;101172.25;4966221;28;45487;-82
2023/01/01 07:51:15;;;;;;;;;5.00;4.00;;;;;14.78;100.00;101166.63;4968439;28;46410;-81
2023/01/01 07:53:40;;;;;;;;;4.67;3.00;;;;;14.92;100.00;101206.00;4972307;28;45547;-81
2023/01/01 07:56:07;;;;;;;;;4.67;4.67;;;;;14.97;100.00;101195.13;4965741;28;45527;-80
2023/01/01 07:58:33;;;;;;;;;8.00;5.00;;;;;14.95;100.00;101197.25;4963189;28;45763;-80
2023/01/01 08:00:58;;;;;;;;;5.00;2.33;;;;;14.94;100.00;101206.63;4961057;28;46005;-80
2023/01/01 08:03:25;;;;;;;;;5.67;4.00;;;;;14.96;100.00;101207.22;4954027;28;45495;-81
2023/01/01 08:05:51;;;;;;;;;4.00;4.00;;;;;14.95;100.00;101205.53;4950595;28;45595;-79
2023/01/01 08:08:16;;;;;;;;;6.33;3.67;;;;;14.82;100.00;101184.44;4960985;28;45739;-79
2023/01/01 08:10:42;;;;;;;;;1.67;1.33;;;;;14.99;100.00;101212.31;4953821;28;46431;-79
2023/01/01 08:13:08;;;;;;;;;5.33;3.67;;;;;15.02;100.00;101210.19;4960481;28;45955;-79
2023/01/01 08:15:35;;;;;;;;;5.67;3.00;;;;;14.89;100.00;101200.09;4957936;28;45525;-81
2023/01/01 08:18:03;;;;;;;;;6.00;4.00;;;;;15.00;100.00;101225.06;4951150;28;46658;-81
2023/01/01 08:20:30;;;;;;;;;4.67;3.00;;;;;14.99;100.00;101233.56;4940264;28;46993;-81
2023/01/01 08:23:28;;;;;;;;;7.00;4.33;;;;;14.99;100.00;101217.00;4961397;28;45992;-81
2023/01/01 08:25:59;;;;;;;;;7.67;5.33;;;;;15.02;100.00;101221.22;4939509;28;45741;-76
2023/01/01 08:28:24;;;;;;;;;6.33;5.67;;;;;14.89;100.00;101205.63;4947636;28;45711;-79
2023/01/01 08:30:50;;;;;;;;;4.67;3.67;;;;;15.02;100.00;101218.47;4962307;28;46698;-79
2023/01/01 08:33:15;;;;;;;;;3.67;3.33;;;;;14.97;100.00;101208.06;4962718;28;45506;-81
2023/01/01 08:35:42;;;;;;;;;5.33;3.00;;;;;15.00;100.00;101225.06;4946443;28;45977;-79
2023/01/01 08:38:10;;;;;;;;;3.33;2.67;;;;;14.97;100.00;101219.13;4965622;28;45846;-80
2023/01/01 08:40:36;;;;;;;;;3.33;3.33;;;;;14.93;100.00;101213.22;4960031;28;46121;-81
2023/01/01 08:43:05;;;;;;;;;2.33;2.33;;;;;14.73;100.00;101172.00;4962772;28;45334;-81
2023/01/01 08:45:31;;;;;;;;;9.00;5.67;;;;;14.76;100.00;101195.53;4966097;28;45405;-82
2023/01/01 08:47:57;;;;;;;;;5.67;4.33;;;;;14.82;100.00;101206.53;4963485;28;44943;-81
2023/01/01 08:50:23;;;;;;;;;6.67;5.33;;;;;14.76;100.00;101190.00;4958696;28;45746;-81
2023/01/01 08:52:48;;;;;;;;;3.33;3.33;;;;;14.77;100.00;101199.97;4950207;28;45709;-81
2023/01/01 08:55:14;;;;;;;;;4.67;3.00;;;;;14.76;100.00;101195.53;4957432;28;45894;-82
2023/01/01 08:57:39;;;;;;;;;3.00;3.00;;;;;14.60;100.00;101174.81;4949287;28;45727;-80
2023/01/01 09:00:08;;;;;;;;;4.00;3.00;;;;;14.68;100.00;101193.88;4957587;28;46527;-82
2023/01/01 09:02:35;;;;;;;;;5.00;3.00;;;;;14.66;100.00;101185.00;4951765;28;45820;-82
2023/01/01 09:05:00;;;;;;;;;4.00;4.00;;;;;14.54;100.00;101164.69;4952865;28;45481;-81
2023/01/01 09:07:31;;;;;;;;;5.33;3.00;;;;;14.57;100.00;101184.41;4958885;28;45487;-81
2023/01/01 09:10:01;;;;;;;;;6.67;3.33;;;;;14.57;100.00;101170.59;4937282;28;45679;-82
2023/01/01 09:12:26;;;;;;;;;4.00;3.00;;;;;14.66;100.00;101179.47;4949038;28;45631;-82
2023/01/01 09:14:52;;;;;;;;;8.67;3.67;;;;;14.50;100.00;101157.94;4953925;28;45449;-81
2023/01/01 09:17:18;;;;;;;;;8.00;4.00;;;;;14.51;100.00;101154.09;4964379;28;45591;-82
2023/01/01 09:19:44;;;;;;;;;8.00;4.00;;;;;14.71;100.00;101174.09;4956428;28;45297;-81
2023/01/01 09:22:10;;;;;;;;;2.33;2.33;;;;;14.70;100.00;101179.84;4950654;28;45525;-81
2023/01/01 09:24:37;;;;;;;;;7.33;5.67;;;;;14.72;100.00;101178.56;4958549;28;45483;-82
2023/01/01 09:27:09;;;;;;;;;4.00;4.00;;;;;14.74;100.00;101181.09;4960703;28;45759;-81
2023/01/01 09:29:35;;;;;;;;;5.00;2.00;;;;;14.76;100.00;101185.34;4951717;28;45982;-82
2023/01/01 09:32:05;;;;;;;;;5.00;3.00;;;;;14.77;100.00;101187.00;4957311;28;45457;-82
2023/01/01 09:34:31;;;;;;;;;5.00;3.67;;;;;14.58;100.00;101157.63;4951081;28;45751;-85
2023/01/01 09:36:57;;;;;;;;;2.67;2.67;;;;;14.74;100.00;101197.66;4957358;28;45492;-79
2023/01/01 09:39:23;;;;;;;;;4.00;3.00;;;;;14.65;100.00;101175.03;4953151;28;45532;-82
2023/01/01 09:42:11;;;;;;;;;5.00;3.00;;;;;14.69;100.00;101190.06;4959242;28;45497;-81
2023/01/01 09:45:19;;;;;;;;;3.33;2.33;;;;;14.77;100.00;101211.03;4934435;28;45741;-82
2023/01/01 09:47:53;;;;;;;;;5.33;3.67;;;;;14.68;100.00;101207.69;4941952;28;45766;-81
2023/01/01 09:50:22;;;;;;;;;4.33;3.00;;;;;14.77;100.00;101214.63;4954040;28;45584;-81
2023/01/01 09:53:20;;;;;;;;;6.67;4.00;;;;;14.79;100.00;101218.03;4951854;28;45467;-81
2023/01/01 09:55:52;;;;;;;;;8.67;5.67;;;;;14.81;100.00;101237.13;4949738;28;45619;-83
2023/01/01 09:58:28;;;;;;;;;4.00;2.67;;;;;14.73;100.00;101232.72;4956642;28;45485;-82
2023/01/01 10:01:08;;;;;;;;;7.33;6.00;;;;;14.76;100.00;101229.50;4966889;28;45492;-82
2023/01/01 10:03:59;;;;;;;;;2.33;2.33;;;;;14.70;100.00;101229.56;4954768;28;45333;-81
2023/01/01 10:06:29;;;;;;;;;4.33;4.00;;;;;14.76;100.00;101236.94;4956228;28;45770;-82
2023/01/01 10:09:35;;;;;;;;;5.00;5.00;;;;;14.82;100.00;101244.34;4955214;28;45768;-83
2023/01/01 10:12:40;;;;;;;;;5.67;3.33;;;;;14.85;100.00;101249.41;4953307;28;46166;-83
2023/01/01 10:15:15;;;;;;;;;7.67;5.33;;;;;14.87;100.00;101254.72;4961293;28;45391;-83
2023/01/01 10:17:47;;;;;;;;;4.00;2.67;;;;;14.81;100.00;101245.41;4947409;28;45459;-84
2023/01/01 10:20:30;;;;;;;;;4.33;2.33;;;;;14.83;100.00;101257.94;4946800;28;45661;-82
2023/01/01 10:23:11;;;;;;;;;4.00;4.00;;;;;14.84;100.00;101264.28;4964626;28;45830;-85
2023/01/01 10:25:39;;;;;;;;;6.33;4.00;;;;;14.94;100.00;101263.75;4950796;28;45519;-84
2023/01/01 10:28:11;;;;;;;;;3.33;1.00;;;;;14.96;100.00;101256.13;4961499;28;45460;-83
2023/01/01 10:30:41;;;;;;;;;6.33;3.33;;;;;14.88;100.00;101235.16;4957036;28;45778;-82
2023/01/01 10:33:12;;;;;;;;;6.33;3.00;;;;;14.91;100.00;101234.69;4955239;28;45596;-85
2023/01/01 10:35:57;;;;;;;;;7.67;5.00;;;;;14.88;100.00;101221.34;4953808;28;45528;-84
2023/01/01 10:38:38;;;;;;;;;5.33;5.33;;;;;14.96;100.00;101228.50;4954144;28;45872;-83
2023/01/01 10:41:13;;;;;;;;;5.67;5.00;;;;;14.78;100.00;101204.44;4972587;28;46092;-83
2023/01/01 10:43:39;;;;;;;;;3.67;3.33;;;;;14.79;100.00;101195.94;4941899;28;46137;-83
2023/01/01 10:46:09;;;;;;;;;5.00;3.00;;;;;14.77;100.00;101167.69;4964459;28;45493;-84
2023/01/01 10:49:02;;;;;;;;;8.00;3.00;;;;;14.96;100.00;101182.38;4943861;28;45396;-84
2023/01/01 10:51:28;;;;;;;;;5.00;3.33;;;;;14.91;100.00;101175.84;4961583;28;45548;-83
2023/01/01 10:54:05;;;;;;;;;8.33;5.00;;;;;15.08;100.00;101195.44;4941290;28;45290;-86
2023/01/01 10:56:50;;;;;;;;;7.00;3.00;;;;;15.08;100.00;101188.00;4961827;28;45425;-84
2023/01/01 10:59:41;;;;;;;;;5.00;5.00;;;;;15.07;100.00;101175.25;4964045;28;45568;-85
2023/01/01 11:02:27;;;;;;;;;5.33;4.00;;;;;15.03;100.00;101170.41;4957936;28;45508;-85
2023/01/01 11:05:14;;;;;;;;;8.33;3.67;;;;;14.95;100.00;101168.78;4962806;28;47451;-83
2023/01/01 11:08:03;;;;;;;;;2.33;2.00;;;;;15.00;100.00;101180.03;4969251;28;45670;-86
2023/01/01 11:10:31;;;;;;;;;5.67;4.00;;;;;15.01;100.00;101178.94;4963866;28;45463;-88
2023/01/01 11:12:57;;;;;;;;;5.00;4.00;;;;;14.79;100.00;101148.13;4960283;28;45730;-85
2023/01/01 11:15:41;;;;;;;;;4.67;4.33;;;;;14.97;100.00;101180.44;4961798;28;47286;-85
2023/01/01 11:18:14;;;;;;;;;3.33;3.00;;;;;14.93;100.00;101166.25;4965160;28;45682;-84
2023/01/01 11:20:43;;;;;;;;;2.33;2.33;;;;;14.94;100.00;101158.81;4949572;28;45435;-84
2023/01/01 11:27:24;;;;;;;;;2.67;2.67;;;;;15.02;100.00;101168.75;4896539;29;45506;-86
2023/01/01 11:30:29;;;;;;;;;6.33;5.00;;;;;15.00;100.00;101164.28;4883225;29;45874;-81
2023/01/01 11:33:04;;;;;;;;;5.33;4.00;;;;;15.02;100.00;101144.72;4848145;29;44842;-85
2023/01/01 11:36:16;;;;;;;;;4.33;3.33;;;;;15.09;100.00;101150.16;4870306;29;46493;-84
2023/01/01 11:38:53;;;;;;;;;4.00;3.00;;;;;14.89;100.00;101118.06;4951155;28;45449;-83
2023/01/01 11:41:19;;;;;;;;;3.33;3.33;;;;;15.10;100.00;101138.88;4960951;28;45563;-81
2023/01/01 11:43:46;;;;;;;;;3.67;2.67;;;;;15.12;100.00;101145.03;4950304;28;45390;-80
2023/01/01 11:46:22;;;;;;;;;5.67;4.33;;;;;15.09;100.00;101123.41;4951960;28;46314;-85
2023/01/01 11:49:11;;;;;;;;;4.67;4.67;;;;;15.18;100.00;101127.53;4932106;28;45971;-84
2023/01/01 11:51:36;;;;;;;;;4.67;2.33;;;;;15.18;100.00;101123.94;4937283;28;45902;-84
2023/01/01 11:54:20;;;;;;;;;3.67;3.67;;;;;15.13;100.00;101110.78;4933511;28;45861;-81
2023/01/01 11:56:52;;;;;;;;;8.67;5.00;;;;;15.19;100.00;101106.28;4948897;28;45446;-82
2023/01/01 11:59:27;;;;;;;;;9.67;9.67;;;;;15.09;100.00;101083.88;4953408;28;45485;-82